Pagrindinis puslapis
METAR-TAF:

METAR-TAF

Oro uostai :

Linatės oro uostas

Milanas, Italija

platuma: 45-26N, ilguma: 009-17E, Aukštis: 107 m

Dabartinis oras

Ataskaita buvo paskelbta 29 minutes, ne 20:50 UTC
Vėjas 1 kt iš Šiaurės
Temperatūra 12°C
Drėgmė 62%
Slėgis 1022 hPa
Matomumas 10 km arba daugiau
nėra debesų žemiau 1500 m ir nėra kamuolinių lietaus debesų

METAR: LIML 092050Z 36001KT CAVOK 12/05 Q1022 NOSIG

Laikas: 23:19 (21:19 UTC)

Prognozė

Ataskaita buvo paskelbta 4 valandos ir 19 minutes, ne 17:00 UTC
Prognozė galioja nuo 09 metu 18 UTC su 10 metu 18 UTC
Vėjas 5 kt nuo kintamojo kryptimis
Matomumas 10 km arba daugiau
nėra debesų žemiau 1500 m ir nėra kamuolinių lietaus debesų

TAF: LIML 091700Z 0918/1018 VRB05KT CAVOK

Orai ataskaitas ir orų prognozės (METAR, TAF).

turimą stotys yra geltonos ir raudonos taškus žemėlapyje.

Perkelti pele per norėdami pamatyti stoties vardą.

Tada spustelėkite, norėdami matyti oro stebėjimo ir prognozės.

Norėdami pakeisti žemėlapį: spustelėkite ant žalios mygtukų su juodo kryžiaus žemyn,; žalią mygtuką su brūkšneliu, jei norite nutolinti; arba žalių rodyklių gretimoms žemėlapius.


METAR-TAF: